Time;durP1;ratioP1;P1;durP2;ratioP2;P2;SDS_P1;SDS_P2;PMS_P1;PMS_P2;Temp;Humidity;BMP_temperature;BMP_pressure;BME280_temperature;BME280_humidity;BME280_pressure;Samples;Min_cycle;Max_cycle;Signal;HPM_P1;HPM_P2
2024/03/29 12:50:50;;;;;;;3.38;2.97;;;;;;;15.76;100.00;99321.28;5084437;27;20950;-66
2024/03/29 12:53:16;;;;;;;2.90;2.65;;;;;;;16.07;100.00;99320.28;5073649;28;20192;-68
2024/03/29 12:55:46;;;;;;;3.30;3.00;;;;;;;16.26;100.00;99304.56;5068090;28;20180;-68
2024/03/29 12:58:12;;;;;;;3.72;2.85;;;;;;;16.63;100.00;99300.59;5070153;28;20592;-68
2024/03/29 13:00:39;;;;;;;3.92;3.17;;;;;;;16.81;100.00;99301.69;5071691;28;20189;-68
2024/03/29 13:03:05;;;;;;;2.85;2.63;;;;;;;16.90;100.00;99309.31;5074212;28;20176;-67
2024/03/29 13:05:34;;;;;;;4.07;3.67;;;;;;;16.83;100.00;99305.13;5062013;22;20232;-71
2024/03/29 13:08:04;;;;;;;3.95;3.60;;;;;;;17.29;100.00;99307.81;5047301;28;20293;-71
2024/03/29 13:10:30;;;;;;;3.42;3.00;;;;;;;17.46;100.00;99323.91;5042759;28;20268;-71
2024/03/29 13:12:55;;;;;;;3.30;3.00;;;;;;;17.39;100.00;99327.72;5042771;28;20212;-71
2024/03/29 13:15:26;;;;;;;4.18;3.40;;;;;;;17.28;100.00;99330.81;5030422;28;20230;-71
2024/03/29 13:17:53;;;;;;;3.72;3.15;;;;;;;17.13;100.00;99315.50;5026887;28;20244;-73
2024/03/29 13:20:19;;;;;;;3.75;3.17;;;;;;;17.06;100.00;99319.31;5042719;28;20217;-71
2024/03/29 13:22:46;;;;;;;3.63;2.90;;;;;;;17.46;100.00;99317.75;5026967;28;20195;-71
2024/03/29 13:25:21;;;;;;;2.58;2.38;;;;;;;17.69;100.00;99312.34;5025691;28;20198;-72
2024/03/29 13:27:49;;;;;;;2.55;2.33;;;;;;;17.68;100.00;99326.56;5027071;28;20727;-71
2024/03/29 13:30:15;;;;;;;3.30;3.00;;;;;;;17.71;100.00;99321.09;5022562;28;20225;-72
2024/03/29 13:32:42;;;;;;;3.10;2.72;;;;;;;17.80;100.00;99335.81;5040093;28;20684;-71
2024/03/29 13:35:11;;;;;;;3.10;2.80;;;;;;;17.86;100.00;99337.31;5024719;28;20220;-72
2024/03/29 13:37:43;;;;;;;3.50;2.50;;;;;;;18.09;100.00;99346.13;5024556;28;20269;-72
2024/03/29 13:40:09;;;;;;;3.15;2.65;;;;;;;18.35;100.00;99337.03;5027176;28;20189;-72
2024/03/29 13:42:36;;;;;;;2.85;2.58;;;;;;;18.63;100.00;99333.13;5020622;28;20196;-72
2024/03/29 13:45:02;;;;;;;3.13;2.92;;;;;;;18.30;100.00;99345.22;5024873;28;20691;-71
2024/03/29 13:47:27;;;;;;;3.00;2.70;;;;;;;17.74;100.00;99353.75;5019290;28;20183;-72
2024/03/29 13:49:54;;;;;;;3.53;2.50;;;;;;;18.26;100.00;99356.06;5020166;28;20222;-71
2024/03/29 13:52:20;;;;;;;2.13;1.92;;;;;;;18.29;100.00;99351.47;5026409;28;20605;-71
2024/03/29 13:54:46;;;;;;;2.92;2.58;;;;;;;18.10;100.00;99356.72;5035702;28;20206;-72
2024/03/29 13:57:15;;;;;;;2.75;2.50;;;;;;;17.75;100.00;99363.47;5020611;28;20182;-71
2024/03/29 13:59:44;;;;;;;2.13;2.00;;;;;;;17.87;100.00;99347.00;5018908;28;20989;-72
2024/03/29 14:02:15;;;;;;;4.03;2.10;;;;;;;17.78;100.00;99361.53;5006576;28;20245;-73
2024/03/29 14:04:41;;;;;;;2.05;1.88;;;;;;;17.79;100.00;99360.63;5006260;28;20733;-72
2024/03/29 14:07:08;;;;;;;2.42;2.08;;;;;;;17.73;100.00;99366.19;5001401;28;20189;-72
2024/03/29 14:09:38;;;;;;;3.13;2.00;;;;;;;17.65;100.00;99360.34;5007140;28;20253;-73
2024/03/29 14:12:04;;;;;;;2.15;1.70;;;;;;;17.73;100.00;99362.69;5006984;28;20183;-72
2024/03/29 14:14:30;;;;;;;2.25;2.00;;;;;;;17.56;100.00;99353.59;5004409;28;20203;-70
2024/03/29 14:16:55;;;;;;;1.92;1.77;;;;;;;17.75;100.00;99343.06;5010774;28;20279;-71
2024/03/29 14:19:21;;;;;;;2.15;1.67;;;;;;;18.12;100.00;99343.38;4998254;28;20179;-72
2024/03/29 14:21:46;;;;;;;3.20;2.05;;;;;;;18.66;97.50;99356.94;4997462;28;20183;-73
2024/03/29 14:24:11;;;;;;;1.63;1.52;;;;;;;18.95;89.06;99352.97;4996461;28;20393;-71
2024/03/29 14:26:38;;;;;;;2.17;1.50;;;;;;;18.81;89.28;99348.28;4999679;28;20179;-71
2024/03/29 14:29:04;;;;;;;2.50;1.40;;;;;;;-146.04;100.00;56920.13;4995227;28;20293;-71
2024/03/29 14:31:29;;;;;;;1.48;1.02;;;;;;;-146.04;100.00;56920.13;4993632;28;20480;-71
2024/03/29 14:33:54;;;;;;;1.13;0.85;;;;;;;-146.04;100.00;56920.13;5011585;28;20305;-71
2024/03/29 14:36:20;;;;;;;1.23;1.13;;;;;;;-146.04;100.00;56920.13;4995929;28;20278;-72
2024/03/29 14:38:45;;;;;;;1.52;1.27;;;;;;;-146.04;100.00;56920.13;4997540;28;20183;-72
2024/03/29 14:41:10;;;;;;;1.23;1.13;;;;;;;-146.04;100.00;56920.13;4996112;28;20205;-73
2024/03/29 14:43:36;;;;;;;1.88;1.10;;;;;;;-146.04;100.00;56920.13;4993499;28;20206;-73
2024/03/29 14:46:01;;;;;;;1.27;0.82;;;;;;;-146.04;100.00;56920.13;4996068;28;20331;-72
2024/03/29 14:48:27;;;;;;;2.65;0.80;;;;;;;-146.04;100.00;56920.13;5014778;28;20201;-73
2024/03/29 14:50:54;;;;;;;2.10;1.02;;;;;;;-146.04;100.00;56920.13;5024847;28;20183;-73
2024/03/29 14:53:20;;;;;;;1.05;0.95;;;;;;;-146.04;100.00;56920.13;5030193;28;20221;-73
2024/03/29 14:55:45;;;;;;;2.03;1.40;;;;;;;-146.04;100.00;56920.13;5018456;28;20211;-74
2024/03/29 14:58:11;;;;;;;2.15;1.00;;;;;;;-146.04;100.00;56920.13;5017592;28;20255;-72
2024/03/29 15:00:36;;;;;;;1.75;1.10;;;;;;;-146.04;100.00;56920.13;5008137;28;20181;-72
2024/03/29 15:03:02;;;;;;;1.65;1.33;;;;;;;-146.04;100.00;56920.13;5003387;28;20187;-72
2024/03/29 15:05:27;;;;;;;2.45;1.00;;;;;;;-146.04;100.00;56920.13;5013693;28;20566;-73
2024/03/29 15:07:53;;;;;;;1.65;1.10;;;;;;;-146.04;100.00;56920.13;5000626;28;20205;-72
2024/03/29 15:10:19;;;;;;;1.55;1.17;;;;;;;-146.04;100.00;56920.13;4996863;28;20249;-73
2024/03/29 15:12:48;;;;;;;1.60;0.93;;;;;;;-146.04;100.00;56920.13;4998028;28;20282;-72
2024/03/29 15:15:13;;;;;;;1.52;1.05;;;;;;;-146.04;100.00;56920.13;4998725;28;20895;-73
2024/03/29 15:17:38;;;;;;;1.13;0.98;;;;;;;-146.04;100.00;56920.13;4996309;28;20187;-73
2024/03/29 15:20:07;;;;;;;1.65;0.93;;;;;;;-146.04;100.00;56920.13;4918599;28;20669;-72
2024/03/29 15:22:32;;;;;;;1.08;0.93;;;;;;;-146.04;100.00;56920.13;4916715;28;20715;-72
2024/03/29 15:25:00;;;;;;;1.38;1.27;;;;;;;-146.04;100.00;56920.13;4975748;28;20208;-73
2024/03/29 15:30:09;;;;;;;1.48;1.15;;;;;;;-146.04;100.00;56920.13;4973218;28;20248;-73
2024/03/29 15:32:36;;;;;;;0.57;0.57;;;;;;;-146.04;100.00;56920.13;4975636;28;20191;-73
2024/03/29 15:35:01;;;;;;;2.35;0.60;;;;;;;-146.04;100.00;56920.13;4974691;28;20234;-74
2024/03/29 15:37:29;;;;;;;0.80;0.80;;;;;;;-146.04;100.00;56920.13;4971742;28;20187;-71
2024/03/29 15:39:54;;;;;;;1.85;0.73;;;;;;;-146.04;100.00;56920.13;4969540;28;20279;-71
2024/03/29 15:42:20;;;;;;;3.30;0.68;;;;;;;-146.04;100.00;56920.13;4954877;28;20184;-72
2024/03/29 15:44:45;;;;;;;1.60;0.73;;;;;;;-146.04;100.00;56920.13;4971268;28;20215;-72
2024/03/29 15:47:13;;;;;;;1.13;0.70;;;;;;;-146.04;100.00;56920.13;4953637;28;20201;-73
2024/03/29 15:49:38;;;;;;;0.93;0.47;;;;;;;-146.04;100.00;56920.13;4953490;28;20343;-72
2024/03/29 15:52:04;;;;;;;0.60;0.60;;;;;;;-146.04;100.00;56920.13;4958648;28;20204;-72
2024/03/29 15:54:29;;;;;;;0.93;0.50;;;;;;;-146.04;100.00;56920.13;4970362;28;20203;-71
2024/03/29 15:56:54;;;;;;;3.00;0.70;;;;;;;-146.04;100.00;56920.13;4963371;28;20264;-71
2024/03/29 15:59:22;;;;;;;1.88;1.02;;;;;;;-146.04;100.00;56920.13;4955395;28;20871;-71
2024/03/29 16:01:48;;;;;;;0.60;0.60;;;;;;;-146.04;100.00;56920.13;4955506;28;20667;-73
2024/03/29 16:04:13;;;;;;;1.13;0.63;;;;;;;-146.04;100.00;56920.13;4954935;28;20227;-73
2024/03/29 16:06:39;;;;;;;2.42;0.70;;;;;;;-146.04;100.00;56920.13;4952909;28;20270;-73
2024/03/29 16:09:04;;;;;;;2.30;0.63;;;;;;;-146.04;100.00;56920.13;4952264;28;20994;-72
2024/03/29 16:11:35;;;;;;;1.00;0.65;;;;;;;-146.04;100.00;56920.13;4951570;28;20477;-71
2024/03/29 16:14:01;;;;;;;0.75;0.70;;;;;;;-146.04;100.00;56920.13;4953171;28;20208;-72
2024/03/29 16:16:26;;;;;;;1.27;1.13;;;;;;;-146.04;100.00;56920.13;4958621;28;20180;-72
2024/03/29 16:18:51;;;;;;;1.92;1.02;;;;;;;-146.04;100.00;56920.13;4956334;28;20181;-71
2024/03/29 16:21:16;;;;;;;1.67;0.77;;;;;;;-146.04;100.00;56920.13;4954625;28;20180;-71
2024/03/29 16:23:42;;;;;;;2.97;1.17;;;;;;;-146.04;100.00;56920.13;4952600;28;20259;-71
2024/03/29 16:26:07;;;;;;;1.80;0.80;;;;;;;-146.04;100.00;56920.13;4955572;28;20196;-71
2024/03/29 16:28:33;;;;;;;1.58;0.90;;;;;;;-146.04;100.00;56920.13;4953442;28;20832;-73
2024/03/29 16:30:58;;;;;;;1.15;1.00;;;;;;;-146.04;100.00;56920.13;4953083;28;20190;-72
2024/03/29 16:33:23;;;;;;;1.15;0.80;;;;;;;-146.04;100.00;56920.13;4952405;28;20224;-71
2024/03/29 16:35:53;;;;;;;1.25;0.90;;;;;;;-146.04;100.00;56920.13;4953120;28;20219;-72
2024/03/29 16:38:18;;;;;;;1.27;0.93;;;;;;;-146.04;100.00;56920.13;4952468;28;21866;-71
2024/03/29 16:40:43;;;;;;;1.17;0.80;;;;;;;-146.04;100.00;56920.13;4952484;28;20445;-72
2024/03/29 16:43:12;;;;;;;1.17;0.80;;;;;;;-146.04;100.00;56920.13;4953002;28;20216;-71
2024/03/29 16:45:42;;;;;;;3.15;0.90;;;;;;;-146.04;100.00;56920.13;4955063;28;20207;-70
2024/03/29 16:48:08;;;;;;;1.38;0.90;;;;;;;-146.04;100.00;56920.13;4966334;28;20322;-72
2024/03/29 16:50:34;;;;;;;4.18;0.90;;;;;;;-146.04;100.00;56920.13;4954589;28;20312;-72
2024/03/29 16:53:01;;;;;;;1.13;0.73;;;;;;;-146.04;100.00;56920.13;4952360;28;20188;-71
2024/03/29 16:55:28;;;;;;;1.67;1.10;;;;;;;-146.04;100.00;56920.13;4951366;28;20219;-71
2024/03/29 16:57:53;;;;;;;1.60;0.82;;;;;;;-146.04;100.00;56920.13;4966935;28;20215;-72
2024/03/29 17:00:19;;;;;;;2.63;0.90;;;;;;;-146.04;100.00;56920.13;4951471;28;20282;-72
2024/03/29 17:02:46;;;;;;;1.10;1.10;;;;;;;-146.04;100.00;56920.13;4952148;28;20219;-71
2024/03/29 17:05:11;;;;;;;0.90;0.90;;;;;;;-146.04;100.00;56920.13;4950551;28;20254;-73
2024/03/29 17:07:37;;;;;;;2.67;0.82;;;;;;;-146.04;100.00;56920.13;4952699;28;20192;-72
2024/03/29 17:10:05;;;;;;;1.30;1.20;;;;;;;-146.04;100.00;56920.13;4952868;28;20216;-72
2024/03/29 17:12:31;;;;;;;1.60;1.20;;;;;;;-146.04;100.00;56920.13;4951375;28;20223;-72
2024/03/29 17:14:57;;;;;;;3.08;1.23;;;;;;;-146.04;100.00;56920.13;4955126;28;20299;-72
2024/03/29 17:17:24;;;;;;;1.42;1.33;;;;;;;-146.04;100.00;56920.13;4953140;28;20236;-72
2024/03/29 17:19:49;;;;;;;1.38;1.27;;;;;;;-146.04;100.00;56920.13;4952705;28;20184;-72
2024/03/29 17:22:14;;;;;;;0.85;0.85;;;;;;;-146.04;100.00;56920.13;4955965;28;20199;-71
2024/03/29 17:24:40;;;;;;;1.38;1.20;;;;;;;-146.04;100.00;56920.13;4950772;28;20209;-71
2024/03/29 17:27:05;;;;;;;2.63;1.33;;;;;;;-146.04;100.00;56920.13;4953056;28;20276;-71
2024/03/29 17:29:30;;;;;;;1.17;1.08;;;;;;;-146.04;100.00;56920.13;4952087;28;21671;-71
2024/03/29 17:31:56;;;;;;;2.25;1.50;;;;;;;-146.04;100.00;56920.13;4951086;28;20260;-72
2024/03/29 17:34:22;;;;;;;2.53;1.73;;;;;;;-146.04;100.00;56920.13;4950949;28;20346;-72
2024/03/29 17:36:48;;;;;;;2.80;1.60;;;;;;;-146.04;100.00;56920.13;4954153;28;20192;-71
2024/03/29 17:39:13;;;;;;;1.88;1.70;;;;;;;-146.04;100.00;56920.13;4955079;28;20220;-71
2024/03/29 17:41:39;;;;;;;1.90;1.80;;;;;;;-146.04;100.00;56920.13;4957678;28;20224;-71
2024/03/29 17:44:05;;;;;;;1.95;1.10;;;;;;;-146.04;100.00;56920.13;4955069;28;20303;-72
2024/03/29 17:46:31;;;;;;;1.33;1.23;;;;;;;-146.04;100.00;56920.13;4954832;28;20194;-72
2024/03/29 17:48:56;;;;;;;2.08;1.30;;;;;;;-146.04;100.00;56920.13;4957254;28;21891;-71
2024/03/29 17:51:22;;;;;;;3.08;1.42;;;;;;;-146.04;100.00;56920.13;4960343;28;20563;-73
2024/03/29 17:53:48;;;;;;;1.75;1.55;;;;;;;-146.04;100.00;56920.13;4954360;28;20203;-72
2024/03/29 17:56:13;;;;;;;4.70;1.38;;;;;;;-146.04;100.00;56920.13;4954342;28;20199;-72
2024/03/29 17:58:38;;;;;;;3.88;1.60;;;;;;;-146.04;100.00;56920.13;4956697;28;20724;-72
2024/03/29 18:01:04;;;;;;;4.03;1.52;;;;;;;-146.04;100.00;56920.13;4954206;28;20250;-72
2024/03/29 18:03:30;;;;;;;3.65;1.60;;;;;;;-146.04;100.00;56920.13;4957136;28;20196;-72
2024/03/29 18:05:56;;;;;;;2.33;1.50;;;;;;;-146.04;100.00;56920.13;4955706;28;20224;-71
2024/03/29 18:08:21;;;;;;;1.63;1.40;;;;;;;-146.04;100.00;56920.13;4971447;28;20279;-72
2024/03/29 18:10:47;;;;;;;1.52;1.30;;;;;;;-146.04;100.00;56920.13;4957248;28;20216;-73
2024/03/29 18:13:15;;;;;;;4.00;1.33;;;;;;;-146.04;100.00;56920.13;4957244;28;20184;-71
2024/03/29 18:15:43;;;;;;;1.52;1.42;;;;;;;-146.04;100.00;56920.13;4959345;28;21157;-71
2024/03/29 18:18:08;;;;;;;1.58;1.48;;;;;;;-146.04;100.00;56920.13;4960995;28;20188;-72
2024/03/29 18:20:33;;;;;;;1.58;1.48;;;;;;;-146.04;100.00;56920.13;4971296;28;20184;-72
2024/03/29 18:23:00;;;;;;;4.00;1.60;;;;;;;-146.04;100.00;56920.13;4963871;28;20203;-72
2024/03/29 18:25:26;;;;;;;1.55;1.45;;;;;;;-146.04;100.00;56920.13;4959031;28;20293;-71
2024/03/29 18:27:51;;;;;;;2.83;1.65;;;;;;;-146.04;100.00;56920.13;4957334;28;20184;-71
2024/03/29 18:30:17;;;;;;;5.65;2.30;;;;;;;-146.04;100.00;56920.13;4954987;28;20285;-73
2024/03/29 18:32:42;;;;;;;5.93;2.85;;;;;;;-146.04;100.00;56920.13;4954741;28;20304;-71
2024/03/29 18:35:08;;;;;;;2.88;2.63;;;;;;;-146.04;100.00;56920.13;4953741;28;20213;-71
2024/03/29 18:37:33;;;;;;;4.53;2.63;;;;;;;-146.04;100.00;56920.13;4953291;28;20599;-72
2024/03/29 18:39:59;;;;;;;3.22;1.95;;;;;;;-146.04;100.00;56920.13;4954993;28;20184;-72
2024/03/29 18:42:24;;;;;;;2.55;1.90;;;;;;;-146.04;100.00;56920.13;4957526;28;20243;-72
2024/03/29 18:44:52;;;;;;;4.50;1.70;;;;;;;-146.04;100.00;56920.13;4953884;28;20482;-71
2024/03/29 18:47:18;;;;;;;3.15;1.98;;;;;;;-146.04;100.00;56920.13;4953275;28;20196;-71
2024/03/29 18:49:44;;;;;;;2.67;1.75;;;;;;;-146.04;100.00;56920.13;4954438;28;20215;-71
2024/03/29 18:52:10;;;;;;;2.92;2.42;;;;;;;-146.04;100.00;56920.13;4953548;28;20188;-71
2024/03/29 18:54:35;;;;;;;2.13;1.80;;;;;;;-146.04;100.00;56920.13;4954165;28;20212;-71
2024/03/29 18:57:01;;;;;;;3.38;1.70;;;;;;;-146.04;100.00;56920.13;4954634;28;20679;-72
2024/03/29 18:59:27;;;;;;;2.80;2.00;;;;;;;-146.04;100.00;56920.13;4956707;28;20803;-72
2024/03/29 19:01:53;;;;;;;3.00;2.10;;;;;;;-146.04;100.00;56920.13;4951454;28;20196;-71
2024/03/29 19:04:19;;;;;;;1.88;1.60;;;;;;;-146.04;100.00;56920.13;4967537;23;20330;-69
2024/03/29 19:06:49;;;;;;;3.28;2.15;;;;;;;-146.04;100.00;56920.13;4952607;28;20196;-69
2024/03/29 19:09:14;;;;;;;3.22;2.20;;;;;;;-146.04;100.00;56920.13;4951392;28;20200;-68
2024/03/29 19:11:39;;;;;;;4.85;2.10;;;;;;;-146.04;100.00;56920.13;4952563;28;21195;-68
2024/03/29 19:14:05;;;;;;;1.50;1.40;;;;;;;-146.04;100.00;56920.13;4951242;28;20206;-69
2024/03/29 19:16:31;;;;;;;2.35;1.92;;;;;;;-146.04;100.00;56920.13;4956482;28;20242;-69
2024/03/29 19:18:56;;;;;;;2.15;1.88;;;;;;;-146.04;100.00;56920.13;4954216;28;20193;-68
2024/03/29 19:21:22;;;;;;;4.40;2.25;;;;;;;-146.04;100.00;56920.13;4953597;28;21360;-69
2024/03/29 19:23:48;;;;;;;3.33;2.08;;;;;;;-146.04;100.00;56920.13;4951302;28;21021;-68
2024/03/29 19:26:14;;;;;;;2.58;2.15;;;;;;;-146.04;100.00;56920.13;4954515;28;20206;-69
2024/03/29 19:28:39;;;;;;;4.10;2.00;;;;;;;-146.04;100.00;56920.13;4952287;28;20189;-67
2024/03/29 19:31:04;;;;;;;3.55;2.28;;;;;;;-146.04;100.00;56920.13;4949266;28;20184;-68
2024/03/29 19:33:30;;;;;;;4.80;2.40;;;;;;;-146.04;100.00;56920.13;4954293;28;20672;-69
2024/03/29 19:35:55;;;;;;;6.18;2.33;;;;;;;-146.04;100.00;56920.13;4975115;28;20690;-69
2024/03/29 19:38:21;;;;;;;3.47;2.00;;;;;;;-146.04;100.00;56920.13;4969347;28;20181;-69
2024/03/29 19:40:46;;;;;;;3.53;2.15;;;;;;;-146.04;100.00;56920.13;4970325;28;20253;-69
2024/03/29 19:43:12;;;;;;;3.60;1.83;;;;;;;-146.04;100.00;56920.13;4968634;28;20805;-68
2024/03/29 19:45:37;;;;;;;2.80;1.55;;;;;;;-146.04;100.00;56920.13;4968846;28;20768;-69
2024/03/29 19:48:03;;;;;;;2.80;1.92;;;;;;;-146.04;100.00;56920.13;4970025;28;20387;-68
2024/03/29 19:50:28;;;;;;;2.13;1.50;;;;;;;-146.04;100.00;56920.13;4967578;28;20220;-69
2024/03/29 19:52:53;;;;;;;3.15;1.58;;;;;;;-146.04;100.00;56920.13;4978958;28;20188;-69
2024/03/29 19:55:19;;;;;;;2.70;2.03;;;;;;;-146.04;100.00;56920.13;4977515;28;20210;-69
2024/03/29 19:57:44;;;;;;;6.80;2.08;;;;;;;-146.04;100.00;56920.13;4971800;28;20192;-68
2024/03/29 20:00:11;;;;;;;3.97;1.60;;;;;;;-146.04;100.00;56920.13;4971440;28;20180;-69
2024/03/29 20:02:36;;;;;;;5.05;1.63;;;;;;;-146.04;100.00;56920.13;4970868;28;20180;-67
2024/03/29 20:05:01;;;;;;;3.67;1.98;;;;;;;-146.04;100.00;56920.13;4967910;28;20308;-68
2024/03/29 20:07:27;;;;;;;4.03;2.35;;;;;;;-146.04;100.00;56920.13;4952158;28;20220;-68
2024/03/29 20:09:52;;;;;;;3.80;2.20;;;;;;;-146.04;100.00;56920.13;4965374;28;20323;-67
2024/03/29 20:12:18;;;;;;;3.17;2.10;;;;;;;-146.04;100.00;56920.13;4950663;28;20889;-69
2024/03/29 20:14:43;;;;;;;3.20;2.65;;;;;;;-146.04;100.00;56920.13;4954797;28;20303;-67
2024/03/29 20:17:08;;;;;;;2.75;2.30;;;;;;;-146.04;100.00;56920.13;4952629;28;20204;-67
2024/03/29 20:19:35;;;;;;;2.03;1.63;;;;;;;-146.04;100.00;56920.13;4951187;28;20284;-68
2024/03/29 20:22:01;;;;;;;1.70;1.60;;;;;;;-146.04;100.00;56920.13;4952688;28;20603;-68
2024/03/29 20:24:31;;;;;;;2.28;1.67;;;;;;;-146.04;100.00;56920.13;4951290;28;20723;-69
2024/03/29 20:26:57;;;;;;;5.20;2.08;;;;;;;-146.04;100.00;56920.13;4951454;28;20235;-69
2024/03/29 20:29:22;;;;;;;3.15;1.92;;;;;;;-146.04;100.00;56920.13;4950344;28;20294;-69
2024/03/29 20:31:48;;;;;;;3.00;2.13;;;;;;;-146.04;100.00;56920.13;4951535;28;20192;-67
2024/03/29 20:34:16;;;;;;;1.70;1.50;;;;;;;-146.04;100.00;56920.13;4951443;28;20254;-67
2024/03/29 20:36:42;;;;;;;3.72;2.15;;;;;;;-146.04;100.00;56920.13;4951244;28;20999;-68
2024/03/29 20:39:07;;;;;;;3.85;1.98;;;;;;;-146.04;100.00;56920.13;4949738;28;20271;-67
2024/03/29 20:41:33;;;;;;;2.20;2.00;;;;;;;-146.04;100.00;56920.13;4950218;28;20837;-68
2024/03/29 20:43:58;;;;;;;2.03;1.88;;;;;;;-146.04;100.00;56920.13;4968969;28;20192;-68
2024/03/29 20:46:24;;;;;;;2.70;2.08;;;;;;;-146.04;100.00;56920.13;4967819;28;20192;-68
2024/03/29 20:48:50;;;;;;;2.30;2.10;;;;;;;-146.04;100.00;56920.13;4970976;28;20306;-67
2024/03/29 20:51:15;;;;;;;2.70;2.25;;;;;;;-146.04;100.00;56920.13;4969343;28;20199;-68
2024/03/29 20:53:40;;;;;;;2.47;2.10;;;;;;;-146.04;100.00;56920.13;4971959;28;20195;-67
2024/03/29 20:56:07;;;;;;;2.58;2.30;;;;;;;-146.04;100.00;56920.13;4967784;28;20216;-69
2024/03/29 20:58:32;;;;;;;3.60;2.25;;;;;;;-146.04;100.00;56920.13;4969204;28;20199;-68
2024/03/29 21:00:58;;;;;;;3.75;2.45;;;;;;;-146.04;100.00;56920.13;4969589;28;20181;-68
2024/03/29 21:06:11;;;;;;;3.88;2.33;;;;;;;-146.04;100.00;56920.13;4973958;28;20564;-68
2024/03/29 21:08:37;;;;;;;3.40;2.40;;;;;;;-146.04;100.00;56920.13;4973419;28;20188;-68
2024/03/29 21:11:05;;;;;;;3.05;2.47;;;;;;;-146.04;100.00;56920.13;4973869;28;20586;-69
2024/03/29 21:13:31;;;;;;;2.67;2.42;;;;;;;-146.04;100.00;56920.13;4972803;28;20194;-68
2024/03/29 21:15:56;;;;;;;3.60;2.65;;;;;;;-146.04;100.00;56920.13;4977127;28;20204;-68
2024/03/29 21:18:22;;;;;;;4.07;2.83;;;;;;;-146.04;100.00;56920.13;4977669;28;20714;-68
2024/03/29 21:20:47;;;;;;;2.97;2.40;;;;;;;-146.04;100.00;56920.13;4976134;28;20295;-68
2024/03/29 21:23:14;;;;;;;5.18;3.03;;;;;;;-146.04;100.00;56920.13;4974386;28;20196;-68
2024/03/29 21:25:39;;;;;;;3.00;2.67;;;;;;;-146.04;100.00;56920.13;4973621;28;20215;-67
2024/03/29 21:28:05;;;;;;;3.17;2.70;;;;;;;-146.04;100.00;56920.13;4969866;28;20192;-70
2024/03/29 21:30:32;;;;;;;6.95;4.00;;;;;;;-146.04;100.00;56920.13;4968856;28;20212;-68
2024/03/29 21:32:58;;;;;;;3.33;3.00;;;;;;;-146.04;100.00;56920.13;4984610;28;20230;-69
2024/03/29 21:35:25;;;;;;;3.00;2.55;;;;;;;-146.04;100.00;56920.13;4970407;28;20220;-69
2024/03/29 21:37:50;;;;;;;2.47;2.28;;;;;;;-146.04;100.00;56920.13;4971965;28;20180;-69
2024/03/29 21:40:16;;;;;;;3.65;3.28;;;;;;;-146.04;100.00;56920.13;4974840;28;20179;-68
2024/03/29 21:42:42;;;;;;;4.60;2.88;;;;;;;-146.04;100.00;56920.13;4970081;28;20229;-69
2024/03/29 21:45:08;;;;;;;5.47;2.95;;;;;;;-146.04;100.00;56920.13;4975634;28;20298;-69
2024/03/29 21:47:36;;;;;;;3.38;2.70;;;;;;;-146.04;100.00;56920.13;4974480;28;20192;-68
2024/03/29 21:50:02;;;;;;;3.20;2.75;;;;;;;-146.04;100.00;56920.13;4969388;28;20200;-68
2024/03/29 21:52:27;;;;;;;3.88;2.33;;;;;;;-146.04;100.00;56920.13;4972460;28;20285;-69
2024/03/29 21:54:53;;;;;;;2.38;2.08;;;;;;;-146.04;100.00;56920.13;4977837;28;20301;-69
2024/03/29 21:57:18;;;;;;;3.28;2.50;;;;;;;-146.04;100.00;56920.13;4972037;28;20881;-69
2024/03/29 21:59:44;;;;;;;3.08;2.58;;;;;;;-146.04;100.00;56920.13;4972563;28;20184;-68
2024/03/29 22:02:10;;;;;;;3.55;2.75;;;;;;;-146.04;100.00;56920.13;4974894;28;20181;-69
2024/03/29 22:04:36;;;;;;;4.22;2.55;;;;;;;-146.04;100.00;56920.13;4973626;28;20671;-69
2024/03/29 22:07:02;;;;;;;3.10;2.53;;;;;;;-146.04;100.00;56920.13;4975817;28;20184;-69
2024/03/29 22:09:28;;;;;;;5.00;3.80;;;;;;;-146.04;100.00;56920.13;4975598;28;20196;-68
2024/03/29 22:11:53;;;;;;;4.82;3.15;;;;;;;-146.04;100.00;56920.13;4976821;28;20465;-69
2024/03/29 22:14:19;;;;;;;3.83;2.83;;;;;;;-146.04;100.00;56920.13;4978967;28;20643;-69
2024/03/29 22:16:44;;;;;;;3.30;2.83;;;;;;;-146.04;100.00;56920.13;4972797;28;20176;-68
2024/03/29 22:19:10;;;;;;;3.85;2.80;;;;;;;-146.04;100.00;56920.13;4973336;28;20267;-69
2024/03/29 22:21:35;;;;;;;3.20;2.38;;;;;;;-146.04;100.00;56920.13;4977699;28;20662;-67
2024/03/29 22:24:01;;;;;;;3.45;2.40;;;;;;;-146.04;100.00;56920.13;4973866;28;20222;-67
2024/03/29 22:26:26;;;;;;;2.58;2.22;;;;;;;-146.04;100.00;56920.13;4973359;28;20558;-68
2024/03/29 22:28:55;;;;;;;2.50;2.28;;;;;;;-146.04;100.00;56920.13;4971326;28;20446;-67
2024/03/29 22:31:20;;;;;;;3.63;2.55;;;;;;;-146.04;100.00;56920.13;4980395;28;20197;-70
2024/03/29 22:33:47;;;;;;;3.83;2.10;;;;;;;-146.04;100.00;56920.13;4969738;28;20189;-67
2024/03/29 22:36:14;;;;;;;4.35;2.20;;;;;;;-146.04;100.00;56920.13;4973178;28;20184;-68
2024/03/29 22:38:39;;;;;;;3.35;2.03;;;;;;;-146.04;100.00;56920.13;4971959;28;20180;-67
2024/03/29 22:41:05;;;;;;;2.17;1.98;;;;;;;-146.04;100.00;56920.13;4977838;28;20529;-68
2024/03/29 22:43:30;;;;;;;4.10;2.08;;;;;;;-146.04;100.00;56920.13;4973776;28;20176;-69
2024/03/29 22:45:55;;;;;;;2.17;1.98;;;;;;;-146.04;100.00;56920.13;4972420;28;20204;-69
2024/03/29 22:48:21;;;;;;;2.78;1.63;;;;;;;-146.04;100.00;56920.13;4973442;28;20576;-68
2024/03/29 22:50:48;;;;;;;2.30;1.60;;;;;;;-146.04;100.00;56920.13;4969672;28;20283;-69
2024/03/29 22:53:16;;;;;;;3.10;1.40;;;;;;;-146.04;100.00;56920.13;4972475;28;20215;-68
2024/03/29 22:55:42;;;;;;;1.40;1.30;;;;;;;-146.04;100.00;56920.13;4973143;28;20268;-69
2024/03/29 22:58:08;;;;;;;1.45;1.00;;;;;;;-146.04;100.00;56920.13;4975765;28;20611;-69
2024/03/29 23:00:34;;;;;;;1.30;1.05;;;;;;;-146.04;100.00;56920.13;4971142;28;20226;-67
2024/03/29 23:03:00;;;;;;;1.92;1.20;;;;;;;-146.04;100.00;56920.13;4975559;28;20214;-68
2024/03/29 23:05:27;;;;;;;1.27;0.95;;;;;;;-146.04;100.00;56920.13;4977889;28;20252;-68
2024/03/29 23:07:56;;;;;;;0.90;0.85;;;;;;;-146.04;100.00;56920.13;4975754;28;20911;-67
2024/03/29 23:10:22;;;;;;;3.13;1.63;;;;;;;-146.04;100.00;56920.13;4973617;28;20216;-68
2024/03/29 23:12:47;;;;;;;1.17;1.08;;;;;;;-146.04;100.00;56920.13;4972666;28;20192;-68
2024/03/29 23:15:13;;;;;;;1.33;0.80;;;;;;;-146.04;100.00;56920.13;4976309;28;20230;-67
2024/03/29 23:17:39;;;;;;;4.00;1.00;;;;;;;-146.04;100.00;56920.13;4975744;28;20268;-67
2024/03/29 23:20:08;;;;;;;1.05;0.85;;;;;;;-146.04;100.00;56920.13;4974528;28;20244;-69
2024/03/29 23:22:33;;;;;;;1.10;0.70;;;;;;;-146.04;100.00;56920.13;4981922;28;20259;-70
2024/03/29 23:24:59;;;;;;;1.08;0.98;;;;;;;-146.04;100.00;56920.13;4977769;28;20314;-69
2024/03/29 23:27:24;;;;;;;2.42;1.30;;;;;;;-146.04;100.00;56920.13;4971619;28;20215;-68
2024/03/29 23:29:50;;;;;;;1.08;0.98;;;;;;;-146.04;100.00;56920.13;4973164;28;20604;-66
2024/03/29 23:32:16;;;;;;;1.38;0.95;;;;;;;-146.04;100.00;56920.13;4970799;28;20185;-67
2024/03/29 23:34:41;;;;;;;1.08;0.80;;;;;;;-146.04;100.00;56920.13;4974380;28;20278;-67
2024/03/29 23:37:07;;;;;;;0.73;0.70;;;;;;;-146.04;100.00;56920.13;4971352;28;20187;-68
2024/03/29 23:39:32;;;;;;;4.57;1.50;;;;;;;-146.04;100.00;56920.13;4973381;28;20230;-67
2024/03/29 23:41:57;;;;;;;1.00;0.90;;;;;;;-146.04;100.00;56920.13;4972692;28;20227;-69
2024/03/29 23:44:22;;;;;;;1.23;0.90;;;;;;;-146.04;100.00;56920.13;4975527;28;20211;-68
2024/03/29 23:46:48;;;;;;;1.88;0.80;;;;;;;-146.04;100.00;56920.13;4969263;28;20192;-68
2024/03/29 23:49:13;;;;;;;2.60;1.10;;;;;;;-146.04;100.00;56920.13;4971238;28;20606;-68
2024/03/29 23:51:38;;;;;;;1.83;0.73;;;;;;;-146.04;100.00;56920.13;4975910;28;20564;-68
2024/03/29 23:54:04;;;;;;;1.17;0.90;;;;;;;-146.04;100.00;56920.13;4973103;28;20228;-70
2024/03/29 23:56:29;;;;;;;1.05;0.95;;;;;;;-146.04;100.00;56920.13;4969496;28;20187;-68
2024/03/29 23:58:57;;;;;;;1.65;1.20;;;;;;;-146.04;100.00;56920.13;4971764;28;20276;-70
